createdAt,value
2023-07-24T00:01:05.429Z,26.37
2023-07-24T00:03:36.110Z,26.39
2023-07-24T00:06:08.611Z,26.39
2023-07-24T00:08:41.657Z,26.41
2023-07-24T00:11:14.011Z,26.43
2023-07-24T00:13:46.435Z,26.43
2023-07-24T00:16:18.841Z,26.40
2023-07-24T00:18:51.285Z,26.40
2023-07-24T00:21:23.515Z,26.38
2023-07-24T00:23:55.939Z,26.37
2023-07-24T00:26:28.756Z,26.36
2023-07-24T00:35:59.762Z,26.39
2023-07-24T00:38:32.107Z,26.41
2023-07-24T00:41:04.517Z,26.42
2023-07-24T00:43:36.823Z,26.40
2023-07-24T00:46:09.239Z,26.36
2023-07-24T00:48:41.628Z,26.33
2023-07-24T00:51:13.893Z,26.29
2023-07-24T00:53:48.902Z,26.26
2023-07-24T00:56:21.366Z,26.23
2023-07-24T00:58:53.925Z,26.20
2023-07-24T01:01:27.107Z,26.19
2023-07-24T01:04:00.788Z,26.18
2023-07-24T01:06:33.398Z,26.16
2023-07-24T01:09:06.050Z,26.14
2023-07-24T01:11:42.272Z,26.12
2023-07-24T01:14:20.185Z,26.06
2023-07-24T01:16:53.092Z,26.06
2023-07-24T01:19:38.813Z,26.05
2023-07-24T01:22:23.330Z,26.05
2023-07-24T01:25:17.014Z,26.04
2023-07-24T01:27:49.769Z,26.02
2023-07-24T01:30:23.394Z,26.02
2023-07-24T01:32:55.987Z,26.00
2023-07-24T01:35:28.900Z,25.95
2023-07-24T01:38:01.535Z,25.91
2023-07-24T01:40:34.577Z,25.90
2023-07-24T01:43:06.801Z,25.89
2023-07-24T01:45:38.190Z,25.88
2023-07-24T01:48:10.786Z,25.84
2023-07-24T01:50:43.261Z,25.86
2023-07-24T01:53:15.795Z,25.86
2023-07-24T01:55:48.069Z,25.85
2023-07-24T01:58:18.680Z,25.83
2023-07-24T02:00:51.710Z,25.76
2023-07-24T02:03:24.163Z,25.74
2023-07-24T02:05:56.433Z,25.66
2023-07-24T02:08:28.850Z,25.54
2023-07-24T02:11:01.400Z,25.46
2023-07-24T02:13:31.972Z,25.37
2023-07-24T02:16:04.302Z,25.28
2023-07-24T02:18:36.732Z,25.24
2023-07-24T02:21:09.080Z,25.15
2023-07-24T02:23:39.686Z,25.05
2023-07-24T02:26:12.052Z,24.93
2023-07-24T02:28:42.576Z,24.93
2023-07-24T02:31:15.537Z,24.89
2023-07-24T02:33:47.751Z,24.84
2023-07-24T02:36:18.596Z,24.79
2023-07-24T02:38:50.990Z,24.65
2023-07-24T02:41:21.769Z,24.43
2023-07-24T02:43:54.176Z,24.21
2023-07-24T02:46:27.118Z,24.22
2023-07-24T02:49:00.180Z,24.20
2023-07-24T02:51:32.374Z,24.24
2023-07-24T02:54:04.618Z,24.27
2023-07-24T02:56:35.240Z,24.31
2023-07-24T02:59:07.495Z,24.32
2023-07-24T03:01:40.186Z,24.37
2023-07-24T03:04:12.553Z,24.42
2023-07-24T03:06:45.077Z,24.47
2023-07-24T03:09:17.582Z,24.49
2023-07-24T03:11:49.957Z,24.44
2023-07-24T03:14:22.336Z,24.48
2023-07-24T03:16:53.057Z,24.51
2023-07-24T03:19:25.399Z,24.50
2023-07-24T03:21:56.099Z,24.54
2023-07-24T03:24:29.062Z,24.55
2023-07-24T03:27:02.102Z,24.58
2023-07-24T03:29:34.562Z,24.57
2023-07-24T03:32:07.593Z,24.58
2023-07-24T03:34:40.392Z,24.61
2023-07-24T03:37:12.724Z,24.66
2023-07-24T03:39:43.273Z,24.69
2023-07-24T03:42:26.352Z,24.69
2023-07-24T03:44:59.615Z,24.72
2023-07-24T03:47:32.075Z,24.75
2023-07-24T03:50:04.651Z,24.76
2023-07-24T03:52:36.996Z,24.73
2023-07-24T03:55:11.902Z,24.74
2023-07-24T03:57:45.246Z,24.77
2023-07-24T04:00:19.879Z,24.77
2023-07-24T04:02:52.146Z,24.75
2023-07-24T04:05:24.507Z,24.74
2023-07-24T04:07:56.152Z,24.80
2023-07-24T04:10:29.012Z,24.81
2023-07-24T04:13:01.464Z,24.84
2023-07-24T04:15:32.019Z,24.88
2023-07-24T04:18:04.619Z,24.88
2023-07-24T04:20:37.322Z,24.93
2023-07-24T04:23:09.720Z,24.96
2023-07-24T04:25:40.372Z,25.01
2023-07-24T04:28:13.065Z,25.01
2023-07-24T04:30:46.844Z,25.06
2023-07-24T04:33:19.338Z,25.07
2023-07-24T04:35:55.554Z,25.08
2023-07-24T04:38:29.323Z,25.10
2023-07-24T04:41:04.227Z,25.08
2023-07-24T04:43:37.759Z,25.07
2023-07-24T04:46:52.921Z,25.04
2023-07-24T04:49:39.804Z,25.08
2023-07-24T04:52:30.072Z,25.10
2023-07-24T04:55:39.918Z,25.12
2023-07-24T04:58:57.984Z,25.17
2023-07-24T05:01:55.301Z,25.20
2023-07-24T05:04:27.733Z,25.21
2023-07-24T05:07:00.328Z,25.23
2023-07-24T05:09:32.687Z,25.28
2023-07-24T05:12:05.830Z,25.34
2023-07-24T05:14:40.932Z,25.39
2023-07-24T05:17:33.231Z,25.47
2023-07-24T05:20:26.067Z,25.53
2023-07-24T05:23:00.918Z,25.61
2023-07-24T05:25:38.891Z,25.66
2023-07-24T05:28:11.567Z,25.74
2023-07-24T05:30:44.085Z,25.81
2023-07-24T05:33:16.626Z,25.87
2023-07-24T05:35:50.524Z,25.94
2023-07-24T05:38:22.887Z,25.99
2023-07-24T05:40:59.621Z,26.01
2023-07-24T05:43:33.760Z,26.06
2023-07-24T05:46:06.225Z,26.13
2023-07-24T05:48:38.707Z,26.21
2023-07-24T05:51:11.558Z,26.28
2023-07-24T05:53:44.126Z,26.36
2023-07-24T05:56:16.641Z,26.46
2023-07-24T05:58:49.032Z,26.54
2023-07-24T06:01:21.523Z,26.59
2023-07-24T06:03:54.253Z,26.65
2023-07-24T06:06:26.961Z,26.74
2023-07-24T06:08:59.422Z,26.81
2023-07-24T06:11:34.129Z,26.90
2023-07-24T06:14:06.740Z,27.01
2023-07-24T06:16:42.029Z,27.09
2023-07-24T06:19:14.993Z,27.18
2023-07-24T06:21:47.804Z,27.29
2023-07-24T06:24:24.871Z,27.41
2023-07-24T06:26:57.342Z,27.52
2023-07-24T06:29:29.960Z,27.60
2023-07-24T06:32:02.515Z,27.68
2023-07-24T06:34:35.096Z,27.75
2023-07-24T06:37:21.692Z,27.81
2023-07-24T06:39:55.067Z,27.89
2023-07-24T06:42:27.648Z,27.95
2023-07-24T06:45:02.094Z,28.05
2023-07-24T06:47:36.192Z,28.20
2023-07-24T06:50:18.724Z,28.31
2023-07-24T06:52:53.158Z,28.40
2023-07-24T06:55:29.220Z,28.53
2023-07-24T06:58:01.780Z,28.66
2023-07-24T07:00:34.084Z,28.75
2023-07-24T07:03:06.613Z,28.83
2023-07-24T07:05:39.284Z,28.96
2023-07-24T07:08:11.625Z,29.20
2023-07-24T07:10:44.206Z,29.43
2023-07-24T07:13:16.750Z,29.66
2023-07-24T07:15:49.361Z,29.87
2023-07-24T07:18:21.828Z,30.03
2023-07-24T07:20:55.627Z,30.18
2023-07-24T07:23:28.387Z,30.35
2023-07-24T07:26:00.953Z,30.49
2023-07-24T07:28:33.402Z,30.71
2023-07-24T07:31:05.892Z,30.94
2023-07-24T07:33:38.418Z,31.10
2023-07-24T07:36:11.133Z,31.15
2023-07-24T07:38:43.512Z,31.34
2023-07-24T07:41:15.909Z,31.56
2023-07-24T07:43:48.370Z,31.69
2023-07-24T07:46:21.181Z,31.81
2023-07-24T07:48:53.695Z,31.88
2023-07-24T07:51:27.010Z,32.07
2023-07-24T07:53:59.494Z,32.30
2023-07-24T07:56:32.232Z,32.49
2023-07-24T07:59:07.388Z,32.69
2023-07-24T08:01:41.678Z,32.87
2023-07-24T08:04:14.311Z,33.01
2023-07-24T08:06:46.754Z,33.20
2023-07-24T08:09:19.282Z,33.37
2023-07-24T08:11:54.377Z,33.52
2023-07-24T08:14:47.483Z,33.54
2023-07-24T08:17:21.414Z,33.42
2023-07-24T08:19:54.011Z,33.40
2023-07-24T08:22:26.510Z,33.31
2023-07-24T08:24:59.015Z,33.27
2023-07-24T08:27:31.701Z,33.36
2023-07-24T08:30:04.274Z,33.47
2023-07-24T08:32:36.962Z,33.64
2023-07-24T08:35:10.825Z,33.81
2023-07-24T08:37:46.535Z,33.99
2023-07-24T08:40:19.752Z,34.29
2023-07-24T08:42:53.022Z,34.59
2023-07-24T08:45:26.263Z,34.75
2023-07-24T08:47:59.649Z,35.07
2023-07-24T08:50:33.546Z,35.36
2023-07-24T08:53:09.635Z,35.35
2023-07-24T08:55:42.361Z,35.30
2023-07-24T08:58:15.031Z,35.43
2023-07-24T09:00:47.612Z,35.74
2023-07-24T09:03:20.438Z,35.95
2023-07-24T09:05:53.226Z,36.12
2023-07-24T09:08:36.439Z,36.30
2023-07-24T09:11:10.173Z,36.62
2023-07-24T09:13:46.367Z,36.72
2023-07-24T09:16:27.043Z,36.78
2023-07-24T09:19:10.770Z,37.09
2023-07-24T09:21:45.718Z,37.36
2023-07-24T09:24:19.008Z,37.24
2023-07-24T09:26:58.550Z,36.96
2023-07-24T09:29:36.608Z,37.19
2023-07-24T09:32:10.496Z,37.53
2023-07-24T09:34:47.449Z,37.76
2023-07-24T09:37:30.625Z,37.88
2023-07-24T09:40:05.806Z,37.97
2023-07-24T09:42:52.997Z,38.07
2023-07-24T09:45:36.465Z,38.27
2023-07-24T09:51:04.832Z,38.84
2023-07-24T09:53:44.037Z,39.07
2023-07-24T09:56:18.390Z,39.17
2023-07-24T09:58:55.597Z,39.22
2023-07-24T10:01:28.814Z,39.30
2023-07-24T10:04:03.122Z,39.48
2023-07-24T10:06:38.338Z,39.42
2023-07-24T10:09:11.641Z,39.34
2023-07-24T10:11:47.161Z,39.47
2023-07-24T10:14:19.874Z,39.88
2023-07-24T10:16:56.869Z,40.13
2023-07-24T10:19:40.417Z,40.01
2023-07-24T10:22:19.629Z,39.89
2023-07-24T10:24:52.063Z,39.64
2023-07-24T10:27:35.894Z,39.64
2023-07-24T10:32:54.152Z,40.28
2023-07-24T10:35:28.244Z,40.53
2023-07-24T10:38:06.122Z,40.71
2023-07-24T10:40:38.855Z,40.80
2023-07-24T10:43:12.558Z,40.67
2023-07-24T10:45:48.627Z,40.61
2023-07-24T10:50:04.934Z,41.11
2023-07-24T10:52:37.882Z,41.44
2023-07-24T10:55:11.618Z,41.76
2023-07-24T10:57:44.130Z,42.05
2023-07-24T11:00:18.883Z,42.21
2023-07-24T11:02:51.496Z,42.39
2023-07-24T11:05:24.081Z,42.52
2023-07-24T11:07:56.620Z,42.69
2023-07-24T11:10:30.990Z,42.69
2023-07-24T11:13:03.380Z,42.67
2023-07-24T11:15:36.364Z,42.66
2023-07-24T11:18:09.563Z,42.49
2023-07-24T11:20:45.677Z,42.10
2023-07-24T11:23:18.486Z,41.83
2023-07-24T11:25:52.474Z,41.62
2023-07-24T11:28:24.778Z,41.27
2023-07-24T11:30:57.415Z,40.94
2023-07-24T11:33:29.831Z,40.92
2023-07-24T11:36:02.406Z,41.05
2023-07-24T11:38:34.806Z,41.24
2023-07-24T11:41:07.228Z,41.63
2023-07-24T11:43:47.250Z,42.15
2023-07-24T11:46:28.570Z,42.32
2023-07-24T11:49:01.435Z,42.42
2023-07-24T11:51:35.710Z,42.47
2023-07-24T11:54:15.108Z,42.30
2023-07-24T11:56:56.040Z,42.47
2023-07-24T11:59:42.592Z,42.73
2023-07-24T12:02:15.485Z,42.94
2023-07-24T12:04:50.313Z,43.19
2023-07-24T12:07:22.852Z,43.08
2023-07-24T12:09:56.088Z,42.83
2023-07-24T12:12:28.415Z,42.87
2023-07-24T12:15:00.970Z,43.23
2023-07-24T12:17:33.494Z,43.41
2023-07-24T12:20:09.910Z,43.50
2023-07-24T12:22:43.303Z,43.78
2023-07-24T12:25:16.734Z,43.71
2023-07-24T12:27:49.335Z,43.05
2023-07-24T12:30:21.943Z,42.84
2023-07-24T12:32:54.469Z,42.93
2023-07-24T12:35:26.984Z,43.12
2023-07-24T12:37:59.206Z,43.01
2023-07-24T12:40:31.670Z,42.81
2023-07-24T12:43:04.058Z,42.51
2023-07-24T12:45:36.327Z,42.22
2023-07-24T12:48:09.102Z,42.15
2023-07-24T12:50:41.678Z,41.83
2023-07-24T12:53:16.181Z,41.85
2023-07-24T12:55:54.269Z,42.07
2023-07-24T12:58:26.521Z,42.29
2023-07-24T13:00:59.142Z,42.58
2023-07-24T13:03:31.578Z,42.54
2023-07-24T13:06:03.980Z,42.58
2023-07-24T13:08:36.649Z,42.60
2023-07-24T13:11:09.040Z,42.60
2023-07-24T13:13:41.577Z,42.68
2023-07-24T13:16:13.857Z,42.57
2023-07-24T13:18:46.374Z,42.41
2023-07-24T13:21:19.185Z,42.28
2023-07-24T13:23:52.764Z,41.98
2023-07-24T13:26:25.110Z,41.48
2023-07-24T13:28:57.639Z,41.05
2023-07-24T13:31:31.038Z,40.95
2023-07-24T13:34:03.548Z,41.04
2023-07-24T13:36:35.794Z,41.07
2023-07-24T13:39:08.296Z,41.17
2023-07-24T13:41:40.650Z,40.93
2023-07-24T13:44:13.576Z,40.69
2023-07-24T13:46:45.987Z,40.67
2023-07-24T13:49:18.348Z,40.81
2023-07-24T13:51:50.589Z,40.74
2023-07-24T13:54:22.907Z,40.76
2023-07-24T13:56:55.702Z,40.63
2023-07-24T13:59:28.080Z,40.56
2023-07-24T14:02:00.580Z,40.56
2023-07-24T14:04:33.135Z,40.74
2023-07-24T14:07:05.572Z,40.87
2023-07-24T14:09:37.723Z,40.79
2023-07-24T14:12:11.088Z,40.85
2023-07-24T14:14:43.407Z,40.89
2023-07-24T14:17:16.405Z,40.76
2023-07-24T14:19:48.796Z,40.71
2023-07-24T14:22:21.351Z,40.69
2023-07-24T14:24:53.921Z,40.74
2023-07-24T14:27:26.598Z,40.86
2023-07-24T14:29:59.239Z,41.00
2023-07-24T14:32:31.861Z,40.88
2023-07-24T14:35:04.449Z,40.87
2023-07-24T14:37:36.916Z,41.09
2023-07-24T14:40:12.233Z,41.28
2023-07-24T14:42:44.571Z,41.39
2023-07-24T14:45:16.982Z,41.42
2023-07-24T14:47:50.077Z,41.10
2023-07-24T14:50:22.506Z,40.87
2023-07-24T14:52:54.874Z,40.77
2023-07-24T14:55:27.424Z,40.77
2023-07-24T14:57:59.708Z,40.80
2023-07-24T15:00:32.130Z,41.00
2023-07-24T15:03:04.446Z,41.17
2023-07-24T15:05:37.482Z,40.94
2023-07-24T15:08:09.983Z,40.67
2023-07-24T15:10:42.418Z,40.54
2023-07-24T15:13:15.052Z,40.54
2023-07-24T15:15:47.345Z,40.52
2023-07-24T15:18:19.866Z,40.59
2023-07-24T15:20:52.351Z,40.63
2023-07-24T15:23:24.805Z,40.55
2023-07-24T15:25:57.263Z,40.30
2023-07-24T15:28:29.594Z,40.17
2023-07-24T15:31:02.207Z,40.00
2023-07-24T15:33:34.371Z,39.93
2023-07-24T15:36:06.970Z,39.74
2023-07-24T15:38:40.322Z,39.57
2023-07-24T15:41:12.876Z,39.38
2023-07-24T15:43:45.238Z,39.12
2023-07-24T15:46:18.439Z,39.02
2023-07-24T15:48:50.842Z,38.89
2023-07-24T15:51:26.470Z,38.72
2023-07-24T15:53:59.245Z,38.53
2023-07-24T15:56:31.797Z,38.25
2023-07-24T15:59:05.745Z,38.07
2023-07-24T16:01:38.254Z,37.92
2023-07-24T16:04:10.639Z,37.81
2023-07-24T16:06:43.194Z,37.62
2023-07-24T16:09:17.429Z,37.47
2023-07-24T16:11:49.592Z,37.38
2023-07-24T16:14:21.928Z,37.36
2023-07-24T16:16:55.095Z,37.26
2023-07-24T16:19:28.819Z,37.09
2023-07-24T16:22:01.193Z,36.98
2023-07-24T16:24:33.809Z,36.89
2023-07-24T16:27:08.900Z,36.88
2023-07-24T16:29:41.340Z,36.83
2023-07-24T16:32:13.757Z,36.78
2023-07-24T16:34:47.708Z,36.79
2023-07-24T16:37:20.289Z,36.73
2023-07-24T16:39:52.442Z,36.70
2023-07-24T16:42:25.045Z,36.63
2023-07-24T16:44:59.481Z,36.54
2023-07-24T16:47:31.917Z,36.39
2023-07-24T16:50:04.192Z,36.35
2023-07-24T16:52:36.611Z,36.40
2023-07-24T16:57:14.866Z,36.43
2023-07-24T16:59:47.250Z,36.44
2023-07-24T17:02:23.035Z,36.44
2023-07-24T17:04:57.936Z,36.42
2023-07-24T17:07:30.881Z,36.38
2023-07-24T17:22:50.239Z,36.66
2023-07-24T17:25:22.978Z,36.51
2023-07-24T17:27:55.511Z,36.24
2023-07-24T17:30:27.928Z,36.09
2023-07-24T17:33:02.917Z,35.96
2023-07-24T17:35:35.367Z,35.80
2023-07-24T17:38:08.164Z,35.69
2023-07-24T17:40:43.646Z,35.60
2023-07-24T17:43:16.041Z,35.52
2023-07-24T17:45:48.641Z,35.39
2023-07-24T17:48:20.874Z,35.29
2023-07-24T17:50:53.103Z,35.18
2023-07-24T17:53:25.624Z,35.11
2023-07-24T17:55:58.172Z,35.03
2023-07-24T17:58:33.435Z,35.00
2023-07-24T18:01:06.170Z,34.98
2023-07-24T18:03:38.700Z,34.93
2023-07-24T18:06:10.982Z,34.91
2023-07-24T18:08:43.689Z,34.85
2023-07-24T18:12:29.278Z,34.76
2023-07-24T18:15:01.780Z,34.72
2023-07-24T18:17:34.220Z,34.72
2023-07-24T18:20:08.137Z,34.71
2023-07-24T18:22:40.767Z,34.70
2023-07-24T18:25:13.829Z,34.69
2023-07-24T18:27:46.299Z,34.64
2023-07-24T18:30:18.982Z,34.58
2023-07-24T18:32:51.649Z,34.54
2023-07-24T18:35:24.389Z,34.52
2023-07-24T18:37:56.946Z,34.48
2023-07-24T18:40:29.387Z,34.44
2023-07-24T18:43:01.609Z,34.39
2023-07-24T18:45:34.141Z,34.34
2023-07-24T18:48:46.821Z,34.30
2023-07-24T18:51:23.895Z,34.23
2023-07-24T18:53:58.596Z,34.20
2023-07-24T18:56:31.497Z,34.16
2023-07-24T18:59:06.034Z,34.11
2023-07-24T19:01:38.397Z,34.05
2023-07-24T19:04:10.717Z,34.00
2023-07-24T19:06:43.227Z,33.94
2023-07-24T19:09:15.710Z,33.88
2023-07-24T19:11:55.930Z,33.83
2023-07-24T19:14:28.279Z,33.76
2023-07-24T19:17:00.577Z,33.66
2023-07-24T19:19:33.055Z,33.56
2023-07-24T19:22:07.892Z,33.48
2023-07-24T19:24:40.800Z,33.40
2023-07-24T19:27:13.686Z,33.35
2023-07-24T19:29:46.560Z,33.30
2023-07-24T19:32:19.081Z,33.25
2023-07-24T19:34:55.400Z,33.19
2023-07-24T19:37:27.973Z,33.13
2023-07-24T19:40:07.210Z,33.08
2023-07-24T19:42:39.608Z,33.03
2023-07-24T19:45:12.734Z,32.96
2023-07-24T19:47:46.567Z,32.86
2023-07-24T19:50:19.323Z,32.77
2023-07-24T19:52:51.876Z,32.70
2023-07-24T19:55:24.190Z,32.65
2023-07-24T19:57:56.565Z,32.63
2023-07-24T20:00:30.398Z,32.60
2023-07-24T20:03:05.345Z,32.56
2023-07-24T20:05:37.830Z,32.52
2023-07-24T20:08:10.075Z,32.48
2023-07-24T20:10:44.917Z,32.44
2023-07-24T20:13:17.291Z,32.42
2023-07-24T20:15:49.853Z,32.36
2023-07-24T20:18:22.353Z,32.31
2023-07-24T20:20:55.280Z,32.21
2023-07-24T20:23:27.666Z,32.16
2023-07-24T20:26:04.577Z,32.10
2023-07-24T20:28:39.194Z,32.06
2023-07-24T20:31:12.081Z,32.00
2023-07-24T20:33:44.379Z,31.95
2023-07-24T20:36:16.800Z,31.88
2023-07-24T20:38:49.223Z,31.81
2023-07-24T20:41:21.466Z,31.73
2023-07-24T20:43:53.867Z,31.66
2023-07-24T20:46:27.378Z,31.63
2023-07-24T20:48:59.560Z,31.60
2023-07-24T20:51:32.117Z,31.57
2023-07-24T20:54:04.760Z,31.53
2023-07-24T20:56:37.610Z,31.45
2023-07-24T20:59:09.990Z,31.37
2023-07-24T21:01:42.502Z,31.33
2023-07-24T21:04:14.854Z,31.31
2023-07-24T21:06:47.190Z,31.28
2023-07-24T21:09:19.849Z,31.24
2023-07-24T21:11:52.056Z,31.19
2023-07-24T21:14:24.245Z,31.15
2023-07-24T21:16:58.251Z,31.13
2023-07-24T21:19:30.603Z,31.11
2023-07-24T21:22:02.711Z,31.10
2023-07-24T21:24:35.061Z,31.08
2023-07-24T21:27:07.935Z,31.04
2023-07-24T21:29:40.343Z,30.98
2023-07-24T21:32:12.661Z,30.91
2023-07-24T21:34:44.816Z,30.83
2023-07-24T21:37:16.987Z,30.80
2023-07-24T21:39:49.275Z,30.77
2023-07-24T21:42:21.458Z,30.76
2023-07-24T21:44:53.821Z,30.74
2023-07-24T21:47:27.317Z,30.67
2023-07-24T21:49:59.703Z,30.63
2023-07-24T21:52:32.003Z,30.63
2023-07-24T21:55:04.370Z,30.61
2023-07-24T21:57:36.621Z,30.61
2023-07-24T22:00:10.546Z,30.60
2023-07-24T22:02:42.957Z,30.58
2023-07-24T22:05:15.365Z,30.55
2023-07-24T22:07:47.589Z,30.50
2023-07-24T22:10:20.154Z,30.50
2023-07-24T22:12:52.575Z,30.50
2023-07-24T22:15:25.008Z,30.49
2023-07-24T22:17:57.403Z,30.48
2023-07-24T22:20:39.138Z,30.48
2023-07-24T22:23:13.256Z,30.44
2023-07-24T22:25:45.584Z,30.39
2023-07-24T22:28:28.252Z,30.37
2023-07-24T22:31:00.793Z,30.34
2023-07-24T22:33:33.111Z,30.33
2023-07-24T22:36:05.936Z,30.28
2023-07-24T22:38:38.296Z,30.24
2023-07-24T22:41:14.352Z,30.23
2023-07-24T22:43:46.543Z,30.22
2023-07-24T22:46:18.918Z,30.20
2023-07-24T22:48:51.052Z,30.16
2023-07-24T22:51:23.376Z,30.11
2023-07-24T22:53:56.692Z,30.07
2023-07-24T22:56:29.352Z,30.01
2023-07-24T22:59:21.327Z,29.92
2023-07-24T23:01:55.329Z,29.90
2023-07-24T23:04:28.289Z,29.90
2023-07-24T23:07:00.947Z,29.87
2023-07-24T23:09:35.307Z,29.83
2023-07-24T23:12:08.756Z,29.83
2023-07-24T23:14:50.052Z,29.81
2023-07-24T23:17:22.274Z,29.79
2023-07-24T23:19:55.016Z,29.77
2023-07-24T23:22:27.629Z,29.72
2023-07-24T23:24:59.837Z,29.62
2023-07-24T23:27:32.726Z,29.56
2023-07-24T23:30:05.698Z,29.57
2023-07-24T23:32:38.135Z,29.55
2023-07-24T23:35:11.133Z,29.55
2023-07-24T23:37:43.264Z,29.51
2023-07-24T23:40:15.962Z,29.45
2023-07-24T23:42:50.200Z,29.41
2023-07-24T23:45:22.564Z,29.41
2023-07-24T23:47:54.901Z,29.42
2023-07-24T23:50:27.170Z,29.41
2023-07-24T23:52:59.953Z,29.42
2023-07-24T23:55:34.795Z,29.41
2023-07-24T23:58:07.161Z,29.41
